sensor_id;sensor_type;location;lat;lon;timestamp;temperature;humidity
17726;DHT22;8983;53.156;17.960;2023-01-15T00:00:02;8.00;99.90
17726;DHT22;8983;53.156;17.960;2023-01-15T00:02:30;6.90;99.90
17726;DHT22;8983;53.156;17.960;2023-01-15T00:04:59;6.90;99.90
17726;DHT22;8983;53.156;17.960;2023-01-15T00:07:29;6.90;99.90
17726;DHT22;8983;53.156;17.960;2023-01-15T00:09:57;6.90;99.90
17726;DHT22;8983;53.156;17.960;2023-01-15T00:12:25;7.50;99.90
17726;DHT22;8983;53.156;17.960;2023-01-15T00:14:53;7.40;99.90
17726;DHT22;8983;53.156;17.960;2023-01-15T00:17:24;6.90;99.90
17726;DHT22;8983;53.156;17.960;2023-01-15T00:19:52;6.90;99.90
17726;DHT22;8983;53.156;17.960;2023-01-15T00:22:21;8.60;99.90
17726;DHT22;8983;53.156;17.960;2023-01-15T00:24:49;7.00;99.90
17726;DHT22;8983;53.156;17.960;2023-01-15T00:27:34;7.70;99.90
17726;DHT22;8983;53.156;17.960;2023-01-15T00:30:08;8.30;99.90
17726;DHT22;8983;53.156;17.960;2023-01-15T00:32:36;7.00;99.90
17726;DHT22;8983;53.156;17.960;2023-01-15T00:35:05;7.10;99.90
17726;DHT22;8983;53.156;17.960;2023-01-15T00:37:34;7.10;99.90
17726;DHT22;8983;53.156;17.960;2023-01-15T00:40:03;7.10;99.90
17726;DHT22;8983;53.156;17.960;2023-01-15T00:42:31;7.10;99.90
17726;DHT22;8983;53.156;17.960;2023-01-15T00:44:59;7.20;99.90
17726;DHT22;8983;53.156;17.960;2023-01-15T00:47:34;7.80;99.90
17726;DHT22;8983;53.156;17.960;2023-01-15T00:50:02;8.10;99.90
17726;DHT22;8983;53.156;17.960;2023-01-15T00:52:30;7.70;99.90
17726;DHT22;8983;53.156;17.960;2023-01-15T00:54:59;8.30;99.90
17726;DHT22;8983;53.156;17.960;2023-01-15T00:57:27;7.70;99.90
17726;DHT22;8983;53.156;17.960;2023-01-15T00:59:55;7.40;99.90
17726;DHT22;8983;53.156;17.960;2023-01-15T01:02:24;7.40;99.90
17726;DHT22;8983;53.156;17.960;2023-01-15T01:04:52;7.40;99.90
17726;DHT22;8983;53.156;17.960;2023-01-15T01:07:20;7.40;99.90
17726;DHT22;8983;53.156;17.960;2023-01-15T01:09:48;8.10;99.90
17726;DHT22;8983;53.156;17.960;2023-01-15T01:12:17;8.40;99.90
17726;DHT22;8983;53.156;17.960;2023-01-15T01:14:46;7.50;99.90
17726;DHT22;8983;53.156;17.960;2023-01-15T01:17:14;7.60;99.90
17726;DHT22;8983;53.156;17.960;2023-01-15T01:19:42;7.70;99.90
17726;DHT22;8983;53.156;17.960;2023-01-15T01:22:10;7.70;99.90
17726;DHT22;8983;53.156;17.960;2023-01-15T01:24:38;7.70;99.90
17726;DHT22;8983;53.156;17.960;2023-01-15T01:27:06;8.10;99.90
17726;DHT22;8983;53.156;17.960;2023-01-15T01:29:35;8.40;99.90
17726;DHT22;8983;53.156;17.960;2023-01-15T01:32:04;8.90;99.90
17726;DHT22;8983;53.156;17.960;2023-01-15T01:34:32;7.90;99.90
17726;DHT22;8983;53.156;17.960;2023-01-15T01:37:00;7.90;99.90
17726;DHT22;8983;53.156;17.960;2023-01-15T01:39:28;8.20;99.90
17726;DHT22;8983;53.156;17.960;2023-01-15T01:41:56;8.00;99.90
17726;DHT22;8983;53.156;17.960;2023-01-15T01:44:58;8.00;99.90
17726;DHT22;8983;53.156;17.960;2023-01-15T01:47:28;8.00;99.90
17726;DHT22;8983;53.156;17.960;2023-01-15T01:50:01;8.00;99.90
17726;DHT22;8983;53.156;17.960;2023-01-15T01:52:38;8.30;99.90
17726;DHT22;8983;53.156;17.960;2023-01-15T01:55:09;8.00;99.90
17726;DHT22;8983;53.156;17.960;2023-01-15T01:57:39;8.30;99.90
17726;DHT22;8983;53.156;17.960;2023-01-15T02:00:10;8.00;99.90
17726;DHT22;8983;53.156;17.960;2023-01-15T02:02:40;8.10;99.90
17726;DHT22;8983;53.156;17.960;2023-01-15T02:05:13;8.10;99.90
17726;DHT22;8983;53.156;17.960;2023-01-15T02:07:42;8.10;99.90
17726;DHT22;8983;53.156;17.960;2023-01-15T02:10:14;9.50;99.90
17726;DHT22;8983;53.156;17.960;2023-01-15T02:12:45;8.20;99.90
17726;DHT22;8983;53.156;17.960;2023-01-15T02:15:23;8.20;99.90
17726;DHT22;8983;53.156;17.960;2023-01-15T02:17:55;8.10;99.90
17726;DHT22;8983;53.156;17.960;2023-01-15T02:20:31;8.20;99.90
17726;DHT22;8983;53.156;17.960;2023-01-15T02:23:19;8.10;99.90
17726;DHT22;8983;53.156;17.960;2023-01-15T02:26:12;8.20;99.90
17726;DHT22;8983;53.156;17.960;2023-01-15T02:28:49;8.50;99.90
17726;DHT22;8983;53.156;17.960;2023-01-15T02:31:22;8.20;99.90
17726;DHT22;8983;53.156;17.960;2023-01-15T02:33:55;8.20;99.90
17726;DHT22;8983;53.156;17.960;2023-01-15T02:36:27;8.20;99.90
17726;DHT22;8983;53.156;17.960;2023-01-15T02:39:00;8.20;99.90
17726;DHT22;8983;53.156;17.960;2023-01-15T02:41:32;8.40;99.90
17726;DHT22;8983;53.156;17.960;2023-01-15T02:44:04;8.20;99.90
17726;DHT22;8983;53.156;17.960;2023-01-15T02:46:35;8.20;99.90
17726;DHT22;8983;53.156;17.960;2023-01-15T02:49:05;8.60;99.90
17726;DHT22;8983;53.156;17.960;2023-01-15T02:51:37;8.60;99.90
17726;DHT22;8983;53.156;17.960;2023-01-15T02:54:12;8.20;99.90
17726;DHT22;8983;53.156;17.960;2023-01-15T02:56:43;8.20;99.90
17726;DHT22;8983;53.156;17.960;2023-01-15T02:59:17;8.20;99.90
17726;DHT22;8983;53.156;17.960;2023-01-15T03:01:49;8.10;99.90
17726;DHT22;8983;53.156;17.960;2023-01-15T03:04:23;8.10;99.90
17726;DHT22;8983;53.156;17.960;2023-01-15T03:06:59;8.10;99.90
17726;DHT22;8983;53.156;17.960;2023-01-15T03:09:28;8.10;99.90
17726;DHT22;8983;53.156;17.960;2023-01-15T03:12:03;8.90;99.90
17726;DHT22;8983;53.156;17.960;2023-01-15T03:14:37;8.10;99.90
17726;DHT22;8983;53.156;17.960;2023-01-15T03:17:12;8.10;99.90
17726;DHT22;8983;53.156;17.960;2023-01-15T03:19:44;8.10;99.90
17726;DHT22;8983;53.156;17.960;2023-01-15T03:22:16;8.10;99.90
17726;DHT22;8983;53.156;17.960;2023-01-15T03:24:48;8.10;99.90
17726;DHT22;8983;53.156;17.960;2023-01-15T03:27:17;8.10;99.90
17726;DHT22;8983;53.156;17.960;2023-01-15T03:29:50;8.10;99.90
17726;DHT22;8983;53.156;17.960;2023-01-15T03:32:18;8.20;99.90
17726;DHT22;8983;53.156;17.960;2023-01-15T03:34:51;8.20;99.90
17726;DHT22;8983;53.156;17.960;2023-01-15T03:37:21;8.60;99.90
17726;DHT22;8983;53.156;17.960;2023-01-15T03:39:50;8.30;99.90
17726;DHT22;8983;53.156;17.960;2023-01-15T03:42:27;8.30;99.90
17726;DHT22;8983;53.156;17.960;2023-01-15T03:45:02;8.30;99.90
17726;DHT22;8983;53.156;17.960;2023-01-15T03:47:38;8.30;99.90
17726;DHT22;8983;53.156;17.960;2023-01-15T03:50:13;8.30;99.90
17726;DHT22;8983;53.156;17.960;2023-01-15T03:52:44;8.30;99.90
17726;DHT22;8983;53.156;17.960;2023-01-15T03:55:16;9.00;99.90
17726;DHT22;8983;53.156;17.960;2023-01-15T03:57:48;8.30;99.90
17726;DHT22;8983;53.156;17.960;2023-01-15T04:00:21;8.30;99.90
17726;DHT22;8983;53.156;17.960;2023-01-15T04:02:52;8.40;99.90
17726;DHT22;8983;53.156;17.960;2023-01-15T04:05:21;8.30;99.90
17726;DHT22;8983;53.156;17.960;2023-01-15T04:07:51;8.30;99.90
17726;DHT22;8983;53.156;17.960;2023-01-15T04:10:20;8.40;99.90
17726;DHT22;8983;53.156;17.960;2023-01-15T04:12:48;8.30;99.90
17726;DHT22;8983;53.156;17.960;2023-01-15T04:15:16;8.30;99.90
17726;DHT22;8983;53.156;17.960;2023-01-15T04:17:46;8.30;99.90
17726;DHT22;8983;53.156;17.960;2023-01-15T04:20:14;8.70;99.90
17726;DHT22;8983;53.156;17.960;2023-01-15T04:22:42;8.30;99.90
17726;DHT22;8983;53.156;17.960;2023-01-15T04:25:10;8.30;99.90
17726;DHT22;8983;53.156;17.960;2023-01-15T04:27:38;8.20;99.90
17726;DHT22;8983;53.156;17.960;2023-01-15T04:30:07;8.20;99.90
17726;DHT22;8983;53.156;17.960;2023-01-15T04:32:35;8.20;99.90
17726;DHT22;8983;53.156;17.960;2023-01-15T04:35:05;8.10;99.90
17726;DHT22;8983;53.156;17.960;2023-01-15T04:37:33;8.10;99.90
17726;DHT22;8983;53.156;17.960;2023-01-15T04:40:01;8.10;99.90
17726;DHT22;8983;53.156;17.960;2023-01-15T04:42:29;8.10;99.90
17726;DHT22;8983;53.156;17.960;2023-01-15T04:45:15;8.10;99.90
17726;DHT22;8983;53.156;17.960;2023-01-15T04:47:43;8.10;99.90
17726;DHT22;8983;53.156;17.960;2023-01-15T04:50:12;8.90;99.90
17726;DHT22;8983;53.156;17.960;2023-01-15T04:52:40;8.20;99.90
17726;DHT22;8983;53.156;17.960;2023-01-15T04:55:08;9.20;99.90
17726;DHT22;8983;53.156;17.960;2023-01-15T04:57:36;8.20;99.90
17726;DHT22;8983;53.156;17.960;2023-01-15T05:00:06;8.20;99.90
17726;DHT22;8983;53.156;17.960;2023-01-15T05:02:34;8.30;99.90
17726;DHT22;8983;53.156;17.960;2023-01-15T05:05:03;8.30;99.90
17726;DHT22;8983;53.156;17.960;2023-01-15T05:07:32;8.30;99.90
17726;DHT22;8983;53.156;17.960;2023-01-15T05:10:00;8.80;99.90
17726;DHT22;8983;53.156;17.960;2023-01-15T05:12:28;9.30;99.90
17726;DHT22;8983;53.156;17.960;2023-01-15T05:14:56;8.40;99.90
17726;DHT22;8983;53.156;17.960;2023-01-15T05:17:24;8.40;99.90
17726;DHT22;8983;53.156;17.960;2023-01-15T05:19:52;8.40;99.90
17726;DHT22;8983;53.156;17.960;2023-01-15T05:22:20;8.40;99.90
17726;DHT22;8983;53.156;17.960;2023-01-15T05:24:49;8.50;99.90
17726;DHT22;8983;53.156;17.960;2023-01-15T05:27:17;8.50;99.90
17726;DHT22;8983;53.156;17.960;2023-01-15T05:29:45;8.50;99.90
17726;DHT22;8983;53.156;17.960;2023-01-15T05:32:13;8.50;99.90
17726;DHT22;8983;53.156;17.960;2023-01-15T05:34:41;8.50;99.90
17726;DHT22;8983;53.156;17.960;2023-01-15T05:37:09;8.50;99.90
17726;DHT22;8983;53.156;17.960;2023-01-15T05:39:37;8.50;99.90
17726;DHT22;8983;53.156;17.960;2023-01-15T05:42:06;8.50;99.90
17726;DHT22;8983;53.156;17.960;2023-01-15T05:44:34;9.00;99.90
17726;DHT22;8983;53.156;17.960;2023-01-15T05:47:02;8.50;99.90
17726;DHT22;8983;53.156;17.960;2023-01-15T05:49:33;8.50;99.90
17726;DHT22;8983;53.156;17.960;2023-01-15T05:52:01;8.30;99.90
17726;DHT22;8983;53.156;17.960;2023-01-15T05:54:31;8.20;99.90
17726;DHT22;8983;53.156;17.960;2023-01-15T05:57:00;8.80;99.90
17726;DHT22;8983;53.156;17.960;2023-01-15T05:59:30;8.10;99.90
17726;DHT22;8983;53.156;17.960;2023-01-15T06:01:59;8.00;99.90
17726;DHT22;8983;53.156;17.960;2023-01-15T06:04:27;7.90;99.90
17726;DHT22;8983;53.156;17.960;2023-01-15T06:06:56;7.80;99.90
17726;DHT22;8983;53.156;17.960;2023-01-15T06:09:25;7.70;99.90
17726;DHT22;8983;53.156;17.960;2023-01-15T06:11:53;7.60;99.90
17726;DHT22;8983;53.156;17.960;2023-01-15T06:14:22;7.60;99.90
17726;DHT22;8983;53.156;17.960;2023-01-15T06:16:51;7.50;99.90
17726;DHT22;8983;53.156;17.960;2023-01-15T06:19:19;7.50;99.90
17726;DHT22;8983;53.156;17.960;2023-01-15T06:21:47;7.70;99.90
17726;DHT22;8983;53.156;17.960;2023-01-15T06:24:15;7.40;99.90
17726;DHT22;8983;53.156;17.960;2023-01-15T06:26:45;7.40;99.90
17726;DHT22;8983;53.156;17.960;2023-01-15T06:29:13;7.40;99.90
17726;DHT22;8983;53.156;17.960;2023-01-15T06:31:45;7.30;99.90
17726;DHT22;8983;53.156;17.960;2023-01-15T06:34:14;7.30;99.90
17726;DHT22;8983;53.156;17.960;2023-01-15T06:36:42;7.30;99.90
17726;DHT22;8983;53.156;17.960;2023-01-15T06:39:10;7.90;99.90
17726;DHT22;8983;53.156;17.960;2023-01-15T06:41:38;7.70;99.90
17726;DHT22;8983;53.156;17.960;2023-01-15T06:44:24;7.80;99.90
17726;DHT22;8983;53.156;17.960;2023-01-15T06:47:12;7.30;99.90
17726;DHT22;8983;53.156;17.960;2023-01-15T06:49:51;7.30;99.90
17726;DHT22;8983;53.156;17.960;2023-01-15T06:52:19;7.30;99.90
17726;DHT22;8983;53.156;17.960;2023-01-15T06:54:47;7.30;99.90
17726;DHT22;8983;53.156;17.960;2023-01-15T06:57:15;7.30;99.90
17726;DHT22;8983;53.156;17.960;2023-01-15T06:59:44;7.30;99.90
17726;DHT22;8983;53.156;17.960;2023-01-15T07:02:12;7.30;99.90
17726;DHT22;8983;53.156;17.960;2023-01-15T07:04:40;7.40;99.90
17726;DHT22;8983;53.156;17.960;2023-01-15T07:07:10;7.30;99.90
17726;DHT22;8983;53.156;17.960;2023-01-15T07:09:37;7.30;99.90
17726;DHT22;8983;53.156;17.960;2023-01-15T07:12:05;7.30;99.90
17726;DHT22;8983;53.156;17.960;2023-01-15T07:14:34;7.40;99.90
17726;DHT22;8983;53.156;17.960;2023-01-15T07:17:02;7.30;99.90
17726;DHT22;8983;53.156;17.960;2023-01-15T07:19:30;7.30;99.90
17726;DHT22;8983;53.156;17.960;2023-01-15T07:21:58;7.40;99.90
17726;DHT22;8983;53.156;17.960;2023-01-15T07:24:28;7.40;99.90
17726;DHT22;8983;53.156;17.960;2023-01-15T07:26:55;7.40;99.90
17726;DHT22;8983;53.156;17.960;2023-01-15T07:29:23;7.60;99.90
17726;DHT22;8983;53.156;17.960;2023-01-15T07:31:51;7.50;99.90
17726;DHT22;8983;53.156;17.960;2023-01-15T07:34:19;8.70;99.90
17726;DHT22;8983;53.156;17.960;2023-01-15T07:36:47;7.40;99.90
17726;DHT22;8983;53.156;17.960;2023-01-15T07:39:15;7.50;99.90
17726;DHT22;8983;53.156;17.960;2023-01-15T07:41:45;7.50;99.90
17726;DHT22;8983;53.156;17.960;2023-01-15T07:44:30;7.50;99.90
17726;DHT22;8983;53.156;17.960;2023-01-15T07:47:18;7.50;99.90
17726;DHT22;8983;53.156;17.960;2023-01-15T07:50:06;7.80;99.90
17726;DHT22;8983;53.156;17.960;2023-01-15T07:52:35;7.50;99.90
17726;DHT22;8983;53.156;17.960;2023-01-15T07:55:03;7.50;99.90
17726;DHT22;8983;53.156;17.960;2023-01-15T07:57:33;7.50;99.90
17726;DHT22;8983;53.156;17.960;2023-01-15T08:00:01;7.60;99.90
17726;DHT22;8983;53.156;17.960;2023-01-15T08:02:29;7.60;99.90
17726;DHT22;8983;53.156;17.960;2023-01-15T08:04:57;7.60;99.90
17726;DHT22;8983;53.156;17.960;2023-01-15T08:07:25;8.70;99.90
17726;DHT22;8983;53.156;17.960;2023-01-15T08:09:53;7.60;99.90
17726;DHT22;8983;53.156;17.960;2023-01-15T08:12:21;7.60;99.90
17726;DHT22;8983;53.156;17.960;2023-01-15T08:15:09;7.60;99.90
17726;DHT22;8983;53.156;17.960;2023-01-15T08:17:42;7.70;99.90
17726;DHT22;8983;53.156;17.960;2023-01-15T08:20:12;7.70;99.90
17726;DHT22;8983;53.156;17.960;2023-01-15T08:22:40;7.70;99.90
17726;DHT22;8983;53.156;17.960;2023-01-15T08:25:11;7.70;99.90
17726;DHT22;8983;53.156;17.960;2023-01-15T08:27:40;7.70;99.90
17726;DHT22;8983;53.156;17.960;2023-01-15T08:30:11;9.00;99.90
17726;DHT22;8983;53.156;17.960;2023-01-15T08:32:40;7.80;99.90
17726;DHT22;8983;53.156;17.960;2023-01-15T08:35:08;7.80;99.90
17726;DHT22;8983;53.156;17.960;2023-01-15T08:37:38;7.80;99.90
17726;DHT22;8983;53.156;17.960;2023-01-15T08:40:07;7.80;99.90
17726;DHT22;8983;53.156;17.960;2023-01-15T08:42:36;7.80;99.90
17726;DHT22;8983;53.156;17.960;2023-01-15T08:45:04;7.80;99.90
17726;DHT22;8983;53.156;17.960;2023-01-15T08:47:34;7.90;99.90
17726;DHT22;8983;53.156;17.960;2023-01-15T08:50:04;7.90;99.90
17726;DHT22;8983;53.156;17.960;2023-01-15T08:52:33;7.90;99.90
17726;DHT22;8983;53.156;17.960;2023-01-15T08:55:01;8.10;99.90
17726;DHT22;8983;53.156;17.960;2023-01-15T08:57:29;9.00;99.90
17726;DHT22;8983;53.156;17.960;2023-01-15T08:59:57;7.90;99.90
17726;DHT22;8983;53.156;17.960;2023-01-15T09:02:25;7.90;99.90
17726;DHT22;8983;53.156;17.960;2023-01-15T09:04:56;9.10;99.90
17726;DHT22;8983;53.156;17.960;2023-01-15T09:07:24;8.40;99.90
17726;DHT22;8983;53.156;17.960;2023-01-15T09:09:52;9.00;99.90
17726;DHT22;8983;53.156;17.960;2023-01-15T09:12:20;8.00;99.90
17726;DHT22;8983;53.156;17.960;2023-01-15T09:14:50;9.30;99.90
17726;DHT22;8983;53.156;17.960;2023-01-15T09:17:28;8.00;99.90
17726;DHT22;8983;53.156;17.960;2023-01-15T09:19:58;8.10;99.90
17726;DHT22;8983;53.156;17.960;2023-01-15T09:22:26;8.00;99.90
17726;DHT22;8983;53.156;17.960;2023-01-15T09:24:56;8.00;99.90
17726;DHT22;8983;53.156;17.960;2023-01-15T09:27:24;8.10;99.90
17726;DHT22;8983;53.156;17.960;2023-01-15T09:29:52;8.10;99.90
17726;DHT22;8983;53.156;17.960;2023-01-15T09:32:21;8.10;99.90
17726;DHT22;8983;53.156;17.960;2023-01-15T09:34:49;8.10;99.90
17726;DHT22;8983;53.156;17.960;2023-01-15T09:37:18;8.10;99.90
17726;DHT22;8983;53.156;17.960;2023-01-15T09:39:47;8.20;99.90
17726;DHT22;8983;53.156;17.960;2023-01-15T09:42:26;8.20;99.90
17726;DHT22;8983;53.156;17.960;2023-01-15T09:45:15;8.20;99.90
17726;DHT22;8983;53.156;17.960;2023-01-15T09:50:42;8.20;99.90
17726;DHT22;8983;53.156;17.960;2023-01-15T09:53:36;9.40;99.90
17726;DHT22;8983;53.156;17.960;2023-01-15T09:56:15;8.20;99.90
17726;DHT22;8983;53.156;17.960;2023-01-15T09:58:46;8.20;99.90
17726;DHT22;8983;53.156;17.960;2023-01-15T10:01:16;7.70;99.90
17726;DHT22;8983;53.156;17.960;2023-01-15T10:03:50;7.80;99.90
17726;DHT22;8983;53.156;17.960;2023-01-15T10:06:21;8.30;99.90
17726;DHT22;8983;53.156;17.960;2023-01-15T10:08:58;7.70;99.90
17726;DHT22;8983;53.156;17.960;2023-01-15T10:11:34;7.40;99.90
17726;DHT22;8983;53.156;17.960;2023-01-15T10:14:39;7.20;99.90
17726;DHT22;8983;53.156;17.960;2023-01-15T10:17:25;7.10;99.90
17726;DHT22;8983;53.156;17.960;2023-01-15T10:19:54;6.70;99.90
17726;DHT22;8983;53.156;17.960;2023-01-15T10:22:36;6.90;99.90
17726;DHT22;8983;53.156;17.960;2023-01-15T10:25:14;6.90;99.90
17726;DHT22;8983;53.156;17.960;2023-01-15T10:27:46;7.00;99.90
17726;DHT22;8983;53.156;17.960;2023-01-15T10:30:24;6.80;99.90
17726;DHT22;8983;53.156;17.960;2023-01-15T10:32:55;6.80;99.90
17726;DHT22;8983;53.156;17.960;2023-01-15T10:35:33;6.70;99.90
17726;DHT22;8983;53.156;17.960;2023-01-15T10:38:13;6.70;99.90
17726;DHT22;8983;53.156;17.960;2023-01-15T10:43:46;6.70;99.90
17726;DHT22;8983;53.156;17.960;2023-01-15T10:46:16;7.10;99.90
17726;DHT22;8983;53.156;17.960;2023-01-15T10:48:46;6.80;99.90
17726;DHT22;8983;53.156;17.960;2023-01-15T10:51:17;6.80;99.90
17726;DHT22;8983;53.156;17.960;2023-01-15T10:53:49;6.90;99.90
17726;DHT22;8983;53.156;17.960;2023-01-15T10:56:27;6.80;99.90
17726;DHT22;8983;53.156;17.960;2023-01-15T10:59:03;6.80;99.90
17726;DHT22;8983;53.156;17.960;2023-01-15T11:01:34;6.80;99.90
17726;DHT22;8983;53.156;17.960;2023-01-15T11:04:02;7.10;99.90
17726;DHT22;8983;53.156;17.960;2023-01-15T11:06:31;6.90;99.90
17726;DHT22;8983;53.156;17.960;2023-01-15T11:08:59;6.80;99.90
17726;DHT22;8983;53.156;17.960;2023-01-15T11:11:40;6.80;99.90
17726;DHT22;8983;53.156;17.960;2023-01-15T11:14:32;6.80;99.90
17726;DHT22;8983;53.156;17.960;2023-01-15T11:17:18;6.80;99.90
17726;DHT22;8983;53.156;17.960;2023-01-15T11:20:16;6.80;99.90
17726;DHT22;8983;53.156;17.960;2023-01-15T11:22:48;6.80;99.90
17726;DHT22;8983;53.156;17.960;2023-01-15T11:25:24;7.30;99.90
17726;DHT22;8983;53.156;17.960;2023-01-15T11:27:56;7.80;99.90
17726;DHT22;8983;53.156;17.960;2023-01-15T11:30:28;6.80;99.90
17726;DHT22;8983;53.156;17.960;2023-01-15T11:32:57;6.80;99.90
17726;DHT22;8983;53.156;17.960;2023-01-15T11:35:26;6.80;99.90
17726;DHT22;8983;53.156;17.960;2023-01-15T11:38:04;6.80;99.90
17726;DHT22;8983;53.156;17.960;2023-01-15T11:40:33;7.20;99.90
17726;DHT22;8983;53.156;17.960;2023-01-15T11:43:02;6.80;99.90
17726;DHT22;8983;53.156;17.960;2023-01-15T11:45:49;7.30;99.90
17726;DHT22;8983;53.156;17.960;2023-01-15T11:48:43;7.20;99.90
17726;DHT22;8983;53.156;17.960;2023-01-15T11:51:40;6.70;99.90
17726;DHT22;8983;53.156;17.960;2023-01-15T11:54:12;6.80;99.90
17726;DHT22;8983;53.156;17.960;2023-01-15T11:56:43;6.70;99.90
17726;DHT22;8983;53.156;17.960;2023-01-15T11:59:15;6.70;99.90
17726;DHT22;8983;53.156;17.960;2023-01-15T12:01:49;6.70;99.90
17726;DHT22;8983;53.156;17.960;2023-01-15T12:04:33;6.60;99.90
17726;DHT22;8983;53.156;17.960;2023-01-15T12:07:04;6.90;99.90
17726;DHT22;8983;53.156;17.960;2023-01-15T12:09:50;6.70;99.90
17726;DHT22;8983;53.156;17.960;2023-01-15T12:12:30;6.70;99.90
17726;DHT22;8983;53.156;17.960;2023-01-15T12:15:29;6.70;99.90
17726;DHT22;8983;53.156;17.960;2023-01-15T12:18:21;6.70;99.90
17726;DHT22;8983;53.156;17.960;2023-01-15T12:20:58;6.60;99.90
17726;DHT22;8983;53.156;17.960;2023-01-15T12:23:49;6.60;99.90
17726;DHT22;8983;53.156;17.960;2023-01-15T12:26:24;6.60;99.90
17726;DHT22;8983;53.156;17.960;2023-01-15T12:28:59;6.50;99.90
17726;DHT22;8983;53.156;17.960;2023-01-15T12:31:34;6.50;99.90
17726;DHT22;8983;53.156;17.960;2023-01-15T12:34:11;7.30;99.90
17726;DHT22;8983;53.156;17.960;2023-01-15T12:36:45;6.60;99.90
17726;DHT22;8983;53.156;17.960;2023-01-15T12:39:17;6.60;99.90
17726;DHT22;8983;53.156;17.960;2023-01-15T12:41:50;6.60;99.90
17726;DHT22;8983;53.156;17.960;2023-01-15T12:44:40;6.60;99.90
17726;DHT22;8983;53.156;17.960;2023-01-15T12:47:36;6.50;99.90
17726;DHT22;8983;53.156;17.960;2023-01-15T12:50:26;7.30;99.90
17726;DHT22;8983;53.156;17.960;2023-01-15T12:53:02;6.60;99.90
17726;DHT22;8983;53.156;17.960;2023-01-15T12:55:35;6.50;99.90
17726;DHT22;8983;53.156;17.960;2023-01-15T12:58:11;7.10;99.90
17726;DHT22;8983;53.156;17.960;2023-01-15T13:00:41;6.40;99.90
17726;DHT22;8983;53.156;17.960;2023-01-15T13:03:23;6.60;99.90
17726;DHT22;8983;53.156;17.960;2023-01-15T13:05:56;6.40;99.90
17726;DHT22;8983;53.156;17.960;2023-01-15T13:08:30;6.40;99.90
17726;DHT22;8983;53.156;17.960;2023-01-15T13:10:59;6.40;99.90
17726;DHT22;8983;53.156;17.960;2023-01-15T13:13:31;6.40;99.90
17726;DHT22;8983;53.156;17.960;2023-01-15T13:16:11;7.60;99.90
17726;DHT22;8983;53.156;17.960;2023-01-15T13:18:53;6.40;99.90
17726;DHT22;8983;53.156;17.960;2023-01-15T13:21:27;6.40;99.90
17726;DHT22;8983;53.156;17.960;2023-01-15T13:24:12;6.40;99.90
17726;DHT22;8983;53.156;17.960;2023-01-15T13:26:55;6.40;99.90
17726;DHT22;8983;53.156;17.960;2023-01-15T13:29:36;6.40;99.90
17726;DHT22;8983;53.156;17.960;2023-01-15T13:32:11;6.70;99.90
17726;DHT22;8983;53.156;17.960;2023-01-15T13:34:44;6.30;99.90
17726;DHT22;8983;53.156;17.960;2023-01-15T13:37:20;6.20;99.90
17726;DHT22;8983;53.156;17.960;2023-01-15T13:39:51;6.10;99.90
17726;DHT22;8983;53.156;17.960;2023-01-15T13:42:22;6.10;99.90
17726;DHT22;8983;53.156;17.960;2023-01-15T13:45:20;6.10;99.90
17726;DHT22;8983;53.156;17.960;2023-01-15T13:47:55;6.10;99.90
17726;DHT22;8983;53.156;17.960;2023-01-15T13:50:29;6.10;99.90
17726;DHT22;8983;53.156;17.960;2023-01-15T13:53:04;6.10;99.90
17726;DHT22;8983;53.156;17.960;2023-01-15T13:55:36;6.60;99.90
17726;DHT22;8983;53.156;17.960;2023-01-15T13:58:17;6.10;99.90
17726;DHT22;8983;53.156;17.960;2023-01-15T14:00:46;6.10;99.90
17726;DHT22;8983;53.156;17.960;2023-01-15T14:03:25;6.10;99.90
17726;DHT22;8983;53.156;17.960;2023-01-15T14:05:55;6.10;99.90
17726;DHT22;8983;53.156;17.960;2023-01-15T14:08:26;6.10;99.90
17726;DHT22;8983;53.156;17.960;2023-01-15T14:10:54;6.40;99.90
17726;DHT22;8983;53.156;17.960;2023-01-15T14:16:26;6.20;99.90
17726;DHT22;8983;53.156;17.960;2023-01-15T14:21:59;6.10;99.90
17726;DHT22;8983;53.156;17.960;2023-01-15T14:24:48;6.10;99.90
17726;DHT22;8983;53.156;17.960;2023-01-15T14:27:36;6.10;99.90
17726;DHT22;8983;53.156;17.960;2023-01-15T14:30:18;6.10;99.90
17726;DHT22;8983;53.156;17.960;2023-01-15T14:32:56;6.40;99.90
17726;DHT22;8983;53.156;17.960;2023-01-15T14:35:34;6.10;99.90
17726;DHT22;8983;53.156;17.960;2023-01-15T14:38:06;6.10;99.90
17726;DHT22;8983;53.156;17.960;2023-01-15T14:40:35;7.70;99.90
17726;DHT22;8983;53.156;17.960;2023-01-15T14:43:10;6.60;99.90
17726;DHT22;8983;53.156;17.960;2023-01-15T14:45:43;6.00;99.90
17726;DHT22;8983;53.156;17.960;2023-01-15T14:48:18;6.00;99.90
17726;DHT22;8983;53.156;17.960;2023-01-15T14:50:47;6.00;99.90
17726;DHT22;8983;53.156;17.960;2023-01-15T14:53:35;6.00;99.90
17726;DHT22;8983;53.156;17.960;2023-01-15T14:56:12;5.90;99.90
17726;DHT22;8983;53.156;17.960;2023-01-15T14:58:54;5.90;99.90
17726;DHT22;8983;53.156;17.960;2023-01-15T15:01:36;5.90;99.90
17726;DHT22;8983;53.156;17.960;2023-01-15T15:04:11;6.00;99.90
17726;DHT22;8983;53.156;17.960;2023-01-15T15:06:45;5.80;99.90
17726;DHT22;8983;53.156;17.960;2023-01-15T15:09:25;6.80;99.90
17726;DHT22;8983;53.156;17.960;2023-01-15T15:11:57;5.80;99.90
17726;DHT22;8983;53.156;17.960;2023-01-15T15:14:57;5.80;99.90
17726;DHT22;8983;53.156;17.960;2023-01-15T15:17:32;5.40;99.90
17726;DHT22;8983;53.156;17.960;2023-01-15T15:20:18;5.70;99.90
17726;DHT22;8983;53.156;17.960;2023-01-15T15:22:52;5.80;99.90
17726;DHT22;8983;53.156;17.960;2023-01-15T15:25:26;5.70;99.90
17726;DHT22;8983;53.156;17.960;2023-01-15T15:28:02;5.80;99.90
17726;DHT22;8983;53.156;17.960;2023-01-15T15:30:32;5.70;99.90
17726;DHT22;8983;53.156;17.960;2023-01-15T15:33:03;5.70;99.90
17726;DHT22;8983;53.156;17.960;2023-01-15T15:35:32;5.70;99.90
17726;DHT22;8983;53.156;17.960;2023-01-15T15:38:04;5.70;99.90
17726;DHT22;8983;53.156;17.960;2023-01-15T15:40:34;5.70;99.90
17726;DHT22;8983;53.156;17.960;2023-01-15T15:43:11;6.20;99.90
17726;DHT22;8983;53.156;17.960;2023-01-15T15:46:23;5.70;99.90
17726;DHT22;8983;53.156;17.960;2023-01-15T15:49:09;5.60;99.90
17726;DHT22;8983;53.156;17.960;2023-01-15T15:51:39;5.60;99.90
17726;DHT22;8983;53.156;17.960;2023-01-15T15:54:14;5.60;99.90
17726;DHT22;8983;53.156;17.960;2023-01-15T15:56:57;5.60;99.90
17726;DHT22;8983;53.156;17.960;2023-01-15T15:59:31;5.80;99.90
17726;DHT22;8983;53.156;17.960;2023-01-15T16:02:07;5.60;99.90
17726;DHT22;8983;53.156;17.960;2023-01-15T16:04:44;5.60;99.90
17726;DHT22;8983;53.156;17.960;2023-01-15T16:07:13;5.60;99.90
17726;DHT22;8983;53.156;17.960;2023-01-15T16:09:47;5.50;99.90
17726;DHT22;8983;53.156;17.960;2023-01-15T16:12:18;5.50;99.90
17726;DHT22;8983;53.156;17.960;2023-01-15T16:14:47;5.50;99.90
17726;DHT22;8983;53.156;17.960;2023-01-15T16:17:15;5.50;99.90
17726;DHT22;8983;53.156;17.960;2023-01-15T16:19:43;5.50;99.90
17726;DHT22;8983;53.156;17.960;2023-01-15T16:22:15;5.50;99.90
17726;DHT22;8983;53.156;17.960;2023-01-15T16:24:52;5.50;99.90
17726;DHT22;8983;53.156;17.960;2023-01-15T16:27:24;5.50;99.90
17726;DHT22;8983;53.156;17.960;2023-01-15T16:29:54;5.50;99.90
17726;DHT22;8983;53.156;17.960;2023-01-15T16:32:25;5.40;99.90